Time;durP1;ratioP1;P1;durP2;ratioP2;P2;SDS_P1;SDS_P2;PMS_P1;PMS_P2;Temp;Humidity;BMP_temperature;BMP_pressure;BME280_temperature;BME280_humidity;BME280_pressure;Samples;Min_cycle;Max_cycle;Signal;HPM_P1;HPM_P2
2022/05/25 00:00:25;;;;;;;3.55;0.90;;;11.40;23.60;;;;;;4990795;28;34407;-76
2022/05/25 00:02:53;;;;;;;0.60;0.60;;;11.30;23.50;;;;;;4973537;28;34225;-77
2022/05/25 00:05:20;;;;;;;0.70;0.60;;;11.20;23.50;;;;;;4995289;28;34160;-77
2022/05/25 00:07:46;;;;;;;1.25;0.80;;;11.20;23.70;;;;;;4990793;28;35972;-76
2022/05/25 00:10:13;;;;;;;0.80;0.77;;;11.10;23.70;;;;;;4990521;28;34132;-76
2022/05/25 00:12:41;;;;;;;1.50;0.90;;;11.10;23.70;;;;;;4990392;28;34090;-76
2022/05/25 00:15:09;;;;;;;1.33;1.13;;;11.10;23.80;;;;;;4994362;28;34523;-77
2022/05/25 00:17:35;;;;;;;1.20;1.10;;;11.00;23.60;;;;;;4995961;28;34287;-77
2022/05/25 00:20:01;;;;;;;2.97;0.82;;;11.00;23.70;;;;;;4990830;28;34190;-77
2022/05/25 00:22:40;;;;;;;2.80;0.80;;;10.90;23.70;;;;;;4989732;28;34163;-77
2022/05/25 00:25:08;;;;;;;0.90;0.90;;;10.80;24.50;;;;;;4990663;28;34019;-77
2022/05/25 00:27:34;;;;;;;0.98;0.98;;;10.80;23.70;;;;;;5007540;28;35771;-77
2022/05/25 00:30:01;;;;;;;0.73;0.70;;;10.70;23.70;;;;;;4992059;28;34260;-76
2022/05/25 00:32:27;;;;;;;1.95;1.05;;;10.60;23.70;;;;;;4988462;28;34055;-77
2022/05/25 00:34:53;;;;;;;0.98;0.80;;;10.60;23.80;;;;;;4973131;28;34125;-77
2022/05/25 00:37:19;;;;;;;0.88;0.70;;;10.60;23.90;;;;;;4972135;28;34951;-77
2022/05/25 00:39:44;;;;;;;1.33;1.00;;;10.50;23.90;;;;;;4972562;28;34278;-78
2022/05/25 00:42:10;;;;;;;0.80;0.80;;;10.50;23.90;;;;;;4971141;28;34233;-76
2022/05/25 00:44:36;;;;;;;0.85;0.85;;;10.40;23.90;;;;;;4988596;28;34240;-77
2022/05/25 00:47:02;;;;;;;0.88;0.88;;;10.40;23.90;;;;;;4970395;28;36059;-77
2022/05/25 00:49:32;;;;;;;1.42;0.90;;;10.30;23.90;;;;;;4972667;28;34290;-77
2022/05/25 00:52:10;;;;;;;0.98;0.85;;;10.30;24.10;;;;;;4954491;28;34206;-77
2022/05/25 00:54:42;;;;;;;0.80;0.80;;;10.30;24.80;;;;;;5001808;28;34168;-77
2022/05/25 00:57:13;;;;;;;0.95;0.88;;;10.20;24.30;;;;;;5006284;28;36826;-77
2022/05/25 01:00:07;;;;;;;3.72;1.00;;;10.20;24.30;;;;;;4989805;28;34211;-77
2022/05/25 01:02:36;;;;;;;1.17;0.85;;;10.20;25.60;;;;;;5001686;28;34130;-77
2022/05/25 01:05:03;;;;;;;0.80;0.80;;;10.10;24.50;;;;;;4986508;28;34107;-77
2022/05/25 01:07:49;;;;;;;3.75;0.88;;;10.10;24.30;;;;;;4988433;28;35984;-77
2022/05/25 01:10:36;;;;;;;3.05;0.80;;;10.10;25.20;;;;;;5000580;28;34118;-77
2022/05/25 01:13:31;;;;;;;0.80;0.80;;;10.00;25.10;;;;;;4991379;28;34308;-77
2022/05/25 01:16:20;;;;;;;0.95;0.80;;;10.00;25.70;;;;;;4993314;28;34531;-77
2022/05/25 01:19:06;;;;;;;1.17;0.93;;;10.00;25.90;;;;;;5007366;28;35606;-77
2022/05/25 01:21:52;;;;;;;1.13;1.02;;;10.00;25.70;;;;;;5005998;28;34111;-76
2022/05/25 01:24:53;;;;;;;1.13;0.98;;;10.00;26.10;;;;;;4988498;28;34089;-77
2022/05/25 01:27:37;;;;;;;1.90;1.10;;;10.00;25.70;;;;;;4990671;28;34158;-77
2022/05/25 01:30:22;;;;;;;1.20;0.85;;;9.90;25.90;;;;;;5007830;28;36782;-77
2022/05/25 01:33:15;;;;;;;0.80;0.80;;;9.90;24.70;;;;;;4992810;28;34190;-77
2022/05/25 01:35:58;;;;;;;1.00;0.90;;;9.80;25.70;;;;;;5006204;28;34246;-77
2022/05/25 01:38:42;;;;;;;1.60;1.10;;;9.80;25.20;;;;;;4990024;28;34168;-77
2022/05/25 01:41:30;;;;;;;1.50;0.85;;;9.80;25.80;;;;;;4994446;28;35851;-77
2022/05/25 01:44:01;;;;;;;0.80;0.80;;;9.70;26.00;;;;;;4999842;28;34092;-77
2022/05/25 01:46:48;;;;;;;0.70;0.70;;;9.70;25.30;;;;;;4987209;28;34404;-77
2022/05/25 01:49:19;;;;;;;0.82;0.82;;;9.60;25.10;;;;;;4993014;28;34384;-77
2022/05/25 01:51:52;;;;;;;2.15;0.90;;;9.60;24.80;;;;;;4987818;28;35104;-77
2022/05/25 01:54:22;;;;;;;0.80;0.80;;;9.50;24.70;;;;;;4970832;28;34352;-77
2022/05/25 01:56:53;;;;;;;0.80;0.80;;;9.50;24.80;;;;;;4953958;28;34140;-77
2022/05/25 01:59:20;;;;;;;1.10;0.90;;;9.40;24.90;;;;;;4971018;28;34100;-77
2022/05/25 02:04:19;;;;;;;1.00;0.90;;;9.40;24.80;;;;;;4954444;28;35782;-77
2022/05/25 02:04:42;;;;;;;1.77;0.82;;;9.40;25.20;;;;;;4959783;28;34169;-77
2022/05/25 02:07:37;;;;;;;1.17;0.80;;;9.40;24.90;;;;;;4978825;28;34369;-78
2022/05/25 02:10:23;;;;;;;1.52;0.80;;;9.30;25.90;;;;;;5004417;28;34112;-77
2022/05/25 02:13:29;;;;;;;1.10;1.00;;;9.30;25.70;;;;;;4968741;28;35590;-77
2022/05/25 02:16:26;;;;;;;0.90;0.90;;;9.20;26.40;;;;;;4975100;28;34176;-77
2022/05/25 02:19:13;;;;;;;1.50;0.93;;;9.20;25.90;;;;;;4968074;28;34279;-77
2022/05/25 02:21:50;;;;;;;1.50;1.00;;;9.20;25.10;;;;;;4955119;28;34249;-77
2022/05/25 02:24:28;;;;;;;0.77;0.77;;;9.10;25.30;;;;;;4968736;28;36653;-77
2022/05/25 02:27:02;;;;;;;1.63;0.98;;;9.10;25.30;;;;;;4990986;28;34126;-77
2022/05/25 02:29:45;;;;;;;1.83;0.60;;;9.10;25.20;;;;;;5009221;28;34426;-77
2022/05/25 02:32:22;;;;;;;1.38;1.00;;;9.00;25.80;;;;;;4991943;28;34351;-77
2022/05/25 02:34:51;;;;;;;1.58;0.77;;;9.00;25.40;;;;;;5006149;28;35311;-77
2022/05/25 02:37:19;;;;;;;2.65;0.70;;;8.90;24.80;;;;;;4989545;28;34318;-77
2022/05/25 02:39:46;;;;;;;1.77;0.85;;;8.90;24.70;;;;;;4972365;28;34290;-77
2022/05/25 02:42:15;;;;;;;0.85;0.80;;;8.90;24.70;;;;;;4989382;28;34477;-77
2022/05/25 02:44:42;;;;;;;3.13;1.20;;;8.80;24.70;;;;;;4972371;28;36536;-77
2022/05/25 02:47:09;;;;;;;1.23;0.80;;;8.80;24.70;;;;;;5005801;28;34291;-77
2022/05/25 02:49:35;;;;;;;1.38;0.95;;;8.70;24.80;;;;;;4974331;28;34221;-77
2022/05/25 02:52:02;;;;;;;0.70;0.70;;;8.70;24.90;;;;;;5005031;28;34288;-77
2022/05/25 02:54:28;;;;;;;1.17;0.85;;;8.60;24.80;;;;;;5004567;28;34369;-78
2022/05/25 02:56:54;;;;;;;1.40;1.00;;;8.60;25.00;;;;;;4971372;28;34041;-77
2022/05/25 02:59:19;;;;;;;0.77;0.77;;;8.60;25.00;;;;;;4968331;28;34175;-78
2022/05/25 03:01:45;;;;;;;2.47;0.90;;;8.60;25.10;;;;;;4984042;28;34466;-77
2022/05/25 03:04:12;;;;;;;0.95;0.88;;;8.50;25.10;;;;;;4968451;28;36291;-77
2022/05/25 03:06:37;;;;;;;1.27;1.08;;;8.50;25.10;;;;;;4993245;28;34218;-77
2022/05/25 03:09:03;;;;;;;0.77;0.70;;;8.50;25.20;;;;;;5004062;28;34386;-77
2022/05/25 03:11:29;;;;;;;2.38;0.95;;;8.40;25.20;;;;;;4987806;28;34080;-77
2022/05/25 03:13:55;;;;;;;1.10;0.88;;;8.40;25.20;;;;;;5003677;28;35551;-77
2022/05/25 03:16:22;;;;;;;1.08;0.98;;;8.40;25.20;;;;;;5003616;28;34590;-77
2022/05/25 03:18:50;;;;;;;3.15;0.88;;;8.40;25.10;;;;;;5003852;28;34498;-78
2022/05/25 03:21:18;;;;;;;2.38;0.70;;;8.30;25.00;;;;;;5000199;28;34058;-77
2022/05/25 03:23:44;;;;;;;1.00;0.90;;;8.30;25.00;;;;;;4985172;28;36738;-77
2022/05/25 03:26:10;;;;;;;2.83;0.88;;;8.30;25.10;;;;;;4986874;28;34289;-77
2022/05/25 03:28:36;;;;;;;0.80;0.80;;;8.20;25.10;;;;;;4993505;28;34185;-77
2022/05/25 03:31:03;;;;;;;1.00;0.90;;;8.20;25.10;;;;;;5005046;28;34336;-77
2022/05/25 03:33:29;;;;;;;0.80;0.80;;;8.20;25.10;;;;;;5000645;28;35809;-77
2022/05/25 03:35:55;;;;;;;1.13;0.70;;;8.20;25.00;;;;;;5005122;28;34054;-77
2022/05/25 03:38:21;;;;;;;1.13;0.85;;;8.20;25.10;;;;;;4971191;28;34016;-77
2022/05/25 03:40:48;;;;;;;1.08;0.82;;;8.10;25.00;;;;;;4993388;28;34170;-77
2022/05/25 03:43:18;;;;;;;0.75;0.75;;;8.10;25.10;;;;;;5005521;28;35236;-77
2022/05/25 03:45:45;;;;;;;0.80;0.80;;;8.10;25.30;;;;;;5003860;28;34587;-77
2022/05/25 03:48:11;;;;;;;0.85;0.85;;;8.20;25.10;;;;;;5003811;28;34128;-77
2022/05/25 03:50:38;;;;;;;0.70;0.70;;;8.20;25.20;;;;;;5004023;28;34142;-77
2022/05/25 03:53:06;;;;;;;0.90;0.90;;;8.20;25.20;;;;;;4988492;28;34910;-77
2022/05/25 03:55:35;;;;;;;2.13;0.88;;;8.20;25.20;;;;;;4991999;28;34058;-77
2022/05/25 03:58:02;;;;;;;2.30;0.70;;;8.20;25.20;;;;;;4997456;28;34153;-77
2022/05/25 04:00:28;;;;;;;2.50;0.82;;;8.30;25.40;;;;;;4969059;28;34521;-77
2022/05/25 04:02:56;;;;;;;1.75;0.98;;;8.30;25.70;;;;;;5003435;28;34659;-77
2022/05/25 04:05:22;;;;;;;1.73;0.95;;;8.30;25.60;;;;;;5004728;28;34203;-77
2022/05/25 04:07:48;;;;;;;3.45;1.10;;;8.40;25.60;;;;;;5003367;28;34352;-78
2022/05/25 04:10:19;;;;;;;0.80;0.80;;;8.40;25.60;;;;;;5004561;28;34328;-77
2022/05/25 04:12:46;;;;;;;1.35;1.00;;;8.50;25.70;;;;;;5003040;28;35170;-77
2022/05/25 04:15:16;;;;;;;1.05;0.82;;;8.60;25.50;;;;;;5004225;28;34108;-77
2022/05/25 04:17:42;;;;;;;1.00;1.00;;;8.60;25.80;;;;;;4987612;28;34249;-78
2022/05/25 04:20:10;;;;;;;0.85;0.85;;;8.60;25.60;;;;;;5004340;28;34364;-77
2022/05/25 04:22:36;;;;;;;1.25;0.70;;;8.70;25.70;;;;;;5002894;28;35848;-77
2022/05/25 04:25:07;;;;;;;1.85;0.90;;;8.80;25.60;;;;;;4987264;28;34452;-77
2022/05/25 04:27:34;;;;;;;1.63;1.00;;;8.80;25.70;;;;;;5004534;28;34135;-77
2022/05/25 04:30:00;;;;;;;5.32;1.67;;;8.90;25.80;;;;;;5004290;28;34408;-77
2022/05/25 04:32:26;;;;;;;1.27;1.10;;;8.90;25.70;;;;;;4986748;28;36467;-77
2022/05/25 04:34:53;;;;;;;1.40;1.30;;;9.00;25.70;;;;;;4992329;28;34079;-78
2022/05/25 04:40:01;;;;;;;5.60;1.65;;;9.20;26.00;;;;;;4983631;28;34144;-77
2022/05/25 04:42:29;;;;;;;2.10;1.60;;;9.20;26.10;;;;;;4966981;28;36675;-77
2022/05/25 04:45:00;;;;;;;6.25;2.17;;;9.30;25.90;;;;;;4982536;28;34286;-78
2022/05/25 04:47:29;;;;;;;2.13;1.73;;;9.40;26.20;;;;;;5003115;28;34611;-78
2022/05/25 04:49:55;;;;;;;7.55;1.70;;;9.50;26.20;;;;;;5002984;28;34519;-78
2022/05/25 04:52:21;;;;;;;3.33;1.52;;;9.60;26.10;;;;;;4996756;28;35569;-77
2022/05/25 04:54:47;;;;;;;1.45;1.35;;;9.70;26.10;;;;;;5003125;28;34392;-77
2022/05/25 04:57:20;;;;;;;7.18;1.77;;;9.80;26.10;;;;;;5004641;28;34055;-78
2022/05/25 04:59:50;;;;;;;7.47;1.50;;;9.90;26.70;;;;;;5002353;28;34188;-78
2022/05/25 05:02:17;;;;;;;2.92;1.38;;;9.90;26.10;;;;;;4986017;28;35844;-79
2022/05/25 05:04:44;;;;;;;1.80;1.60;;;10.00;25.90;;;;;;5004012;28;34166;-78
2022/05/25 05:07:11;;;;;;;3.13;1.30;;;10.00;25.90;;;;;;5002769;28;34135;-77
2022/05/25 05:09:38;;;;;;;7.18;1.83;;;10.10;26.10;;;;;;5003339;28;34095;-77
2022/05/25 05:12:05;;;;;;;2.45;1.85;;;10.10;26.10;;;;;;4996185;28;34979;-78
2022/05/25 05:14:31;;;;;;;18.52;1.75;;;10.20;26.10;;;;;;5003583;28;34053;-77
2022/05/25 05:16:59;;;;;;;1.92;1.67;;;10.30;26.10;;;;;;4986743;28;34246;-78
2022/05/25 05:19:26;;;;;;;12.50;1.90;;;10.30;25.90;;;;;;4970757;28;34062;-77
2022/05/25 05:21:54;;;;;;;18.92;1.88;;;10.30;25.90;;;;;;5003864;28;34193;-77
2022/05/25 05:24:21;;;;;;;2.15;1.38;;;10.30;26.00;;;;;;4983511;28;34377;-77
2022/05/25 05:26:47;;;;;;;8.18;1.65;;;10.30;26.80;;;;;;4984824;28;34474;-78
2022/05/25 05:29:13;;;;;;;4.70;1.70;;;10.40;26.30;;;;;;4999845;28;34447;-78
2022/05/25 05:31:39;;;;;;;2.30;1.45;;;10.40;26.40;;;;;;4998944;28;36782;-78
2022/05/25 05:34:05;;;;;;;1.63;1.52;;;10.60;26.40;;;;;;4983164;28;34183;-78
2022/05/25 05:36:36;;;;;;;1.48;1.27;;;10.70;26.40;;;;;;5002046;28;34274;-78
2022/05/25 05:39:06;;;;;;;1.42;1.33;;;10.80;26.50;;;;;;5004733;28;34213;-78
2022/05/25 05:41:47;;;;;;;1.95;1.77;;;10.80;26.30;;;;;;4982704;28;35810;-79
2022/05/25 05:44:19;;;;;;;4.35;1.45;;;10.90;26.40;;;;;;4982878;28;34090;-78
2022/05/25 05:46:46;;;;;;;5.00;1.67;;;10.90;25.90;;;;;;4984787;28;34261;-77
2022/05/25 05:49:13;;;;;;;2.08;1.50;;;10.90;25.70;;;;;;4992182;28;34471;-78
2022/05/25 05:51:40;;;;;;;5.47;1.50;;;11.00;25.70;;;;;;5034476;28;35344;-77
2022/05/25 05:54:06;;;;;;;1.55;1.45;;;11.00;25.40;;;;;;4992623;28;34412;-78
2022/05/25 05:56:33;;;;;;;1.85;1.55;;;11.00;25.30;;;;;;4994920;28;34399;-78
2022/05/25 05:59:00;;;;;;;3.78;1.60;;;11.10;25.40;;;;;;5007840;28;34406;-79
2022/05/25 06:01:26;;;;;;;1.48;1.38;;;11.10;25.40;;;;;;4973980;28;35732;-78
2022/05/25 06:03:52;;;;;;;2.15;1.45;;;11.10;25.20;;;;;;4958768;28;34160;-78
2022/05/25 06:06:18;;;;;;;1.95;1.77;;;11.20;25.30;;;;;;5008326;28;34198;-78
2022/05/25 06:08:46;;;;;;;1.90;1.75;;;11.30;25.30;;;;;;4974100;28;34153;-78
2022/05/25 06:11:14;;;;;;;2.17;1.73;;;11.40;25.20;;;;;;4976682;28;36861;-78
2022/05/25 06:13:41;;;;;;;2.88;1.75;;;11.60;25.30;;;;;;5009128;28;34238;-78
2022/05/25 06:21:29;;;;;;;4.70;2.10;;;11.90;24.60;;;;;;4992656;28;34152;-79
2022/05/25 06:23:57;;;;;;;2.65;2.08;;;12.10;24.50;;;;;;4974773;28;34092;-79
2022/05/25 06:26:27;;;;;;;2.05;1.85;;;12.20;24.10;;;;;;4992949;28;34158;-78
2022/05/25 06:28:53;;;;;;;5.60;2.15;;;12.50;23.70;;;;;;5008998;28;34191;-77
2022/05/25 06:31:19;;;;;;;1.83;1.73;;;12.80;23.20;;;;;;4974196;28;36593;-78
2022/05/25 06:33:45;;;;;;;2.33;1.80;;;13.10;22.80;;;;;;4993460;28;34004;-79
2022/05/25 06:36:19;;;;;;;2.15;1.95;;;13.70;21.60;;;;;;4992307;28;34372;-79
2022/05/25 06:38:46;;;;;;;1.55;1.45;;;14.40;21.90;;;;;;4981343;28;34269;-78
2022/05/25 06:41:12;;;;;;;1.92;1.70;;;15.20;19.00;;;;;;5008166;28;35593;-79
2022/05/25 06:43:38;;;;;;;3.83;1.70;;;15.90;17.60;;;;;;4991078;28;34233;-78
2022/05/25 06:46:05;;;;;;;1.80;1.70;;;16.50;16.40;;;;;;4974847;28;34350;-79
2022/05/25 06:48:31;;;;;;;2.15;1.95;;;17.20;15.60;;;;;;4974606;28;34139;-78
2022/05/25 06:50:57;;;;;;;1.48;1.38;;;17.80;14.40;;;;;;4971393;28;36298;-77
2022/05/25 06:53:23;;;;;;;3.72;1.52;;;18.40;13.90;;;;;;4971002;28;34304;-77
2022/05/25 06:55:49;;;;;;;1.80;1.70;;;19.00;13.30;;;;;;5002253;28;34352;-80
2022/05/25 06:58:15;;;;;;;1.40;1.30;;;19.50;13.00;;;;;;4970146;28;34097;-78
2022/05/25 07:00:42;;;;;;;3.47;1.33;;;20.00;12.40;;;;;;4979952;28;34846;-80
2022/05/25 07:03:09;;;;;;;1.60;1.42;;;20.30;12.10;;;;;;4959873;28;34136;-79
2022/05/25 07:05:35;;;;;;;2.60;1.10;;;20.30;11.50;;;;;;4974917;28;34259;-79
2022/05/25 07:08:01;;;;;;;1.98;1.13;;;20.50;11.40;;;;;;4994893;28;34099;-77
2022/05/25 07:10:26;;;;;;;1.40;1.30;;;20.70;11.50;;;;;;5005385;28;35830;-78
2022/05/25 07:12:52;;;;;;;1.30;1.20;;;21.00;11.50;;;;;;5006299;28;34268;-77
2022/05/25 07:15:18;;;;;;;1.70;1.33;;;21.20;11.60;;;;;;4989703;28;34214;-78
2022/05/25 07:17:47;;;;;;;1.42;1.13;;;21.40;11.40;;;;;;4994138;28;34103;-78
2022/05/25 07:20:13;;;;;;;1.50;1.40;;;21.30;11.20;;;;;;5004170;28;36578;-77
2022/05/25 07:22:40;;;;;;;3.10;1.25;;;21.30;11.40;;;;;;4987445;28;34336;-77
2022/05/25 07:25:07;;;;;;;1.30;1.20;;;21.30;11.50;;;;;;4988363;28;34124;-78
2022/05/25 07:27:32;;;;;;;1.38;1.27;;;21.10;11.70;;;;;;4989022;28;34264;-78
2022/05/25 07:29:58;;;;;;;1.20;1.10;;;21.30;11.80;;;;;;4974351;28;35890;-79
2022/05/25 07:32:25;;;;;;;1.42;1.00;;;21.40;11.20;;;;;;5008894;28;34367;-78
2022/05/25 07:34:58;;;;;;;2.95;1.13;;;21.50;11.40;;;;;;4989820;28;34281;-78
2022/05/25 07:37:37;;;;;;;0.70;0.70;;;21.70;10.00;;;;;;4990284;28;34233;-79
2022/05/25 07:40:13;;;;;;;2.08;0.80;;;21.80;10.70;;;;;;4991421;28;34441;-78
2022/05/25 07:42:42;;;;;;;2.08;1.00;;;22.00;8.90;;;;;;4975269;28;34085;-77
2022/05/25 07:45:09;;;;;;;0.77;0.77;;;22.20;9.20;;;;;;4989689;28;34015;-77
2022/05/25 07:47:35;;;;;;;1.58;0.88;;;22.50;9.90;;;;;;5005998;28;34404;-77
2022/05/25 07:50:01;;;;;;;2.38;0.73;;;22.70;9.50;;;;;;4985358;28;36639;-77
2022/05/25 07:52:34;;;;;;;2.53;0.70;;;22.60;8.90;;;;;;4987891;28;34198;-79
2022/05/25 07:55:02;;;;;;;2.63;0.70;;;22.80;6.00;;;;;;4987613;28;34060;-77
2022/05/25 07:57:28;;;;;;;1.13;0.77;;;22.90;8.80;;;;;;5002357;28;34444;-75
2022/05/25 07:59:57;;;;;;;0.57;0.57;;;23.30;8.20;;;;;;5002108;28;36120;-77
2022/05/25 08:07:57;;;;;;;0.45;0.45;;;23.40;6.40;;;;;;4995062;28;34115;-79
2022/05/25 08:10:25;;;;;;;0.85;0.30;;;23.40;6.70;;;;;;4986496;28;34138;-78
2022/05/25 08:12:55;;;;;;;0.95;0.50;;;23.50;6.10;;;;;;4980966;28;34230;-77
2022/05/25 08:15:22;;;;;;;3.15;0.60;;;23.70;4.80;;;;;;4978420;28;34086;-79
2022/05/25 08:17:49;;;;;;;0.70;0.30;;;23.70;4.40;;;;;;4969110;28;34325;-80
2022/05/25 08:20:18;;;;;;;1.40;0.30;;;23.80;4.20;;;;;;4988672;28;34342;-80
2022/05/25 08:22:44;;;;;;;0.75;0.45;;;23.70;4.10;;;;;;4991425;28;34332;-78
2022/05/25 08:25:12;;;;;;;0.40;0.38;;;23.70;3.50;;;;;;5005741;28;34267;-76
2022/05/25 08:27:39;;;;;;;0.40;0.40;;;23.50;3.10;;;;;;5007289;28;34104;-79
2022/05/25 08:30:10;;;;;;;0.90;0.45;;;23.50;3.40;;;;;;5008604;28;34473;-78
2022/05/25 08:32:36;;;;;;;0.50;0.50;;;23.60;2.10;;;;;;5006440;28;33631;-77
2022/05/25 08:35:03;;;;;;;1.40;0.40;;;23.40;2.80;;;;;;5006401;28;34187;-80
2022/05/25 08:37:29;;;;;;;0.88;0.43;;;23.40;2.40;;;;;;4989506;28;34087;-78
2022/05/25 08:39:55;;;;;;;1.50;0.40;;;23.30;2.70;;;;;;5008377;28;34374;-79
2022/05/25 08:42:24;;;;;;;0.98;0.40;;;23.30;3.00;;;;;;4972713;28;34160;-78
2022/05/25 08:44:53;;;;;;;1.45;0.47;;;23.40;2.70;;;;;;5007246;28;34306;-76
2022/05/25 08:47:19;;;;;;;0.50;0.50;;;23.40;1.00;;;;;;5006356;28;34157;-76
2022/05/25 08:49:47;;;;;;;1.30;0.52;;;23.20;1.80;;;;;;5010727;28;35840;-77
2022/05/25 08:52:32;;;;;;;0.30;0.30;;;23.20;1.10;;;;;;5007478;28;34284;-78
2022/05/25 08:55:01;;;;;;;2.13;0.30;;;23.50;1.00;;;;;;5008511;28;34231;-76
2022/05/25 08:57:32;;;;;;;2.22;0.40;;;23.60;1.00;;;;;;5008350;28;34017;-77
2022/05/25 09:00:03;;;;;;;0.57;0.57;;;23.60;1.00;;;;;;4994137;28;36056;-78
2022/05/25 09:02:45;;;;;;;2.15;0.32;;;23.70;1.00;;;;;;5008096;28;34144;-77
2022/05/25 09:05:36;;;;;;;0.40;0.40;;;23.80;1.00;;;;;;5009361;28;34316;-77
2022/05/25 09:08:24;;;;;;;1.55;0.25;;;23.90;1.00;;;;;;4977394;28;34674;-79
2022/05/25 09:10:56;;;;;;;1.80;0.30;;;24.10;1.00;;;;;;5026784;28;34368;-77
2022/05/25 09:13:35;;;;;;;2.88;0.60;;;24.10;1.00;;;;;;5003002;28;34942;-76
2022/05/25 09:19:01;;;;;;;0.80;0.40;;;24.10;1.00;;;;;;5008409;28;34250;-80
2022/05/25 09:21:31;;;;;;;0.40;0.40;;;23.90;1.00;;;;;;4976726;28;35596;-81
2022/05/25 09:24:02;;;;;;;0.95;0.40;;;23.90;1.00;;;;;;4990514;28;34154;-80
2022/05/25 09:26:28;;;;;;;0.50;0.40;;;23.70;1.00;;;;;;5010052;28;34395;-79
2022/05/25 09:28:59;;;;;;;1.65;0.30;;;23.50;1.00;;;;;;5001935;28;34667;-78
2022/05/25 09:31:32;;;;;;;0.35;0.25;;;23.50;1.00;;;;;;5009719;28;36550;-77
2022/05/25 09:34:03;;;;;;;2.47;0.25;;;23.40;1.00;;;;;;4988074;28;34199;-75
2022/05/25 09:36:39;;;;;;;1.33;0.40;;;23.50;1.00;;;;;;4982923;28;34248;-77
2022/05/25 09:39:23;;;;;;;0.90;0.40;;;23.00;1.00;;;;;;5007519;28;34106;-78
2022/05/25 09:41:55;;;;;;;0.90;0.43;;;22.90;1.00;;;;;;5015470;28;34600;-76
2022/05/25 09:44:22;;;;;;;1.30;0.30;;;23.00;1.00;;;;;;4977371;28;34325;-75
2022/05/25 09:46:52;;;;;;;0.38;0.30;;;23.10;1.00;;;;;;4992522;28;34488;-77
2022/05/25 09:49:38;;;;;;;0.93;0.38;;;23.40;1.00;;;;;;4995810;28;34080;-77
2022/05/25 09:52:21;;;;;;;0.28;0.28;;;23.30;1.00;;;;;;5028982;28;34253;-77
2022/05/25 09:55:13;;;;;;;4.97;0.50;;;23.50;1.00;;;;;;4995051;28;34187;-77
2022/05/25 09:57:50;;;;;;;2.67;0.47;;;23.70;1.00;;;;;;5010778;28;34336;-76
2022/05/25 10:00:22;;;;;;;1.45;0.30;;;23.80;1.00;;;;;;4995134;28;34365;-78
2022/05/25 10:02:59;;;;;;;0.55;0.30;;;23.90;1.00;;;;;;5011847;28;35915;-78
2022/05/25 10:05:28;;;;;;;0.70;0.60;;;24.10;1.00;;;;;;4995489;28;34131;-79
2022/05/25 10:08:15;;;;;;;1.02;0.30;;;24.20;1.00;;;;;;5010066;28;34296;-77
2022/05/25 10:10:55;;;;;;;1.35;0.22;;;24.30;1.00;;;;;;4989740;28;34209;-77
2022/05/25 10:13:25;;;;;;;1.17;0.20;;;24.30;1.00;;;;;;5028344;28;35432;-78
2022/05/25 10:15:51;;;;;;;0.43;0.28;;;24.30;1.00;;;;;;5029929;28;34366;-78
2022/05/25 10:18:42;;;;;;;0.82;0.30;;;24.30;1.00;;;;;;5011779;28;34290;-77
2022/05/25 10:21:20;;;;;;;1.48;0.40;;;24.30;1.00;;;;;;5011807;28;34088;-79
2022/05/25 10:23:46;;;;;;;0.52;0.28;;;23.90;1.00;;;;;;5028097;28;34352;-79
2022/05/25 10:26:17;;;;;;;0.43;0.20;;;23.50;1.00;;;;;;4989905;28;34107;-77
2022/05/25 10:28:54;;;;;;;0.40;0.30;;;23.10;1.00;;;;;;5007687;28;34012;-76
2022/05/25 10:37:11;;;;;;;1.73;0.20;;;22.40;1.00;;;;;;5028849;28;34381;-76
2022/05/25 10:39:41;;;;;;;1.05;0.50;;;22.70;1.00;;;;;;4995389;28;34421;-77
2022/05/25 10:42:23;;;;;;;1.40;0.30;;;22.60;1.00;;;;;;5026770;28;34260;-78
2022/05/25 10:45:08;;;;;;;0.20;0.20;;;22.90;1.00;;;;;;5009567;28;35616;-76
2022/05/25 10:48:07;;;;;;;0.75;0.50;;;22.90;1.00;;;;;;4994113;28;33787;-77
2022/05/25 10:50:56;;;;;;;0.80;0.38;;;22.80;1.00;;;;;;5006318;28;34290;-77
2022/05/25 10:53:35;;;;;;;0.52;0.30;;;23.10;1.00;;;;;;4973168;28;34144;-77
2022/05/25 10:56:22;;;;;;;0.22;0.22;;;23.30;1.00;;;;;;4971394;28;35731;-77
2022/05/25 10:59:13;;;;;;;0.88;0.30;;;23.20;1.00;;;;;;4989683;28;34130;-78
2022/05/25 11:01:55;;;;;;;0.73;0.40;;;22.90;1.00;;;;;;4994504;28;34245;-77
2022/05/25 11:04:56;;;;;;;1.17;0.20;;;22.50;1.00;;;;;;4990232;28;34466;-77
2022/05/25 11:07:39;;;;;;;0.65;0.50;;;22.30;1.00;;;;;;4976519;28;35893;-75
2022/05/25 11:10:27;;;;;;;1.92;0.40;;;22.40;1.00;;;;;;5007490;28;33991;-78
2022/05/25 11:13:28;;;;;;;0.30;0.20;;;22.70;1.00;;;;;;4972157;28;34140;-79
2022/05/25 11:19:15;;;;;;;0.47;0.35;;;23.30;1.00;;;;;;4974495;28;34126;-77
2022/05/25 11:22:07;;;;;;;1.42;0.20;;;23.50;1.00;;;;;;4988526;28;34157;-75
2022/05/25 11:24:59;;;;;;;2.15;0.47;;;23.70;1.00;;;;;;4989775;28;34200;-78
2022/05/25 11:27:56;;;;;;;0.35;0.28;;;23.90;1.00;;;;;;4988614;28;34340;-77
2022/05/25 11:30:44;;;;;;;0.28;0.25;;;24.00;1.00;;;;;;4988070;28;34602;-77
2022/05/25 11:33:32;;;;;;;0.40;0.40;;;23.80;1.00;;;;;;4986604;28;34284;-78
2022/05/25 11:36:09;;;;;;;0.57;0.30;;;23.40;1.00;;;;;;4989150;28;34313;-75
2022/05/25 11:39:02;;;;;;;1.38;0.40;;;23.40;1.00;;;;;;4987885;28;34518;-77
2022/05/25 11:42:03;;;;;;;0.20;0.20;;;23.60;1.00;;;;;;4986100;28;35538;-77
2022/05/25 11:45:00;;;;;;;0.45;0.20;;;23.50;1.00;;;;;;4990584;28;34210;-77
2022/05/25 11:47:51;;;;;;;0.90;0.43;;;23.50;1.00;;;;;;5006957;28;34194;-78
2022/05/25 11:50:37;;;;;;;0.30;0.30;;;23.40;1.00;;;;;;5019308;28;34271;-77
2022/05/25 11:53:25;;;;;;;1.27;0.40;;;23.20;1.00;;;;;;4993542;28;35654;-76
2022/05/25 11:56:07;;;;;;;1.75;0.30;;;22.80;1.00;;;;;;5009108;28;34482;-75
2022/05/25 11:59:03;;;;;;;2.42;0.40;;;22.50;1.00;;;;;;5011597;28;34113;-76
2022/05/25 12:01:51;;;;;;;0.38;0.32;;;22.30;1.00;;;;;;4994425;28;34067;-79
2022/05/25 12:04:56;;;;;;;0.50;0.45;;;22.50;1.00;;;;;;5008256;28;36122;-77
2022/05/25 12:07:46;;;;;;;0.90;0.50;;;22.70;1.00;;;;;;5002082;28;34214;-78
2022/05/25 12:10:42;;;;;;;0.40;0.40;;;23.00;1.00;;;;;;5008784;28;34010;-77
2022/05/25 12:13:25;;;;;;;0.40;0.40;;;23.40;1.00;;;;;;4999739;28;34228;-79
2022/05/25 12:16:15;;;;;;;1.55;0.30;;;23.50;1.00;;;;;;4999300;28;35630;-78
2022/05/25 12:18:54;;;;;;;0.95;0.35;;;23.40;1.00;;;;;;4994263;28;34466;-77
2022/05/25 12:21:31;;;;;;;0.30;0.30;;;23.50;1.00;;;;;;4995837;28;34085;-77
2022/05/25 12:24:03;;;;;;;0.38;0.35;;;23.70;1.00;;;;;;5027357;28;34610;-77
2022/05/25 12:26:32;;;;;;;0.43;0.22;;;23.60;1.00;;;;;;5010739;28;35593;-77
2022/05/25 12:29:18;;;;;;;0.30;0.30;;;23.80;1.00;;;;;;5010285;28;34078;-80
2022/05/25 12:31:46;;;;;;;1.50;0.52;;;24.00;1.00;;;;;;5010862;28;34193;-78
2022/05/25 12:34:14;;;;;;;1.02;0.50;;;24.10;1.00;;;;;;4992575;28;34210;-78
2022/05/25 12:36:42;;;;;;;0.90;0.40;;;24.30;1.00;;;;;;4993233;28;35820;-77
2022/05/25 12:39:09;;;;;;;0.40;0.40;;;24.40;1.00;;;;;;5011121;28;33884;-78
2022/05/25 12:41:38;;;;;;;1.02;0.20;;;24.50;1.00;;;;;;5007580;28;34319;-76
2022/05/25 12:49:39;;;;;;;0.52;0.30;;;24.40;1.00;;;;;;5008650;28;34153;-79
2022/05/25 12:52:41;;;;;;;0.50;0.40;;;24.50;1.70;;;;;;4991428;28;34306;-80
2022/05/25 12:55:21;;;;;;;0.80;0.30;;;24.50;1.00;;;;;;4994184;28;34210;-78
2022/05/25 12:57:51;;;;;;;4.35;0.52;;;24.50;1.00;;;;;;4991112;28;35855;-76
2022/05/25 13:00:29;;;;;;;1.20;0.50;;;24.30;1.70;;;;;;5005852;28;34275;-78
2022/05/25 13:02:55;;;;;;;0.20;0.20;;;24.30;1.00;;;;;;5007030;28;34090;-77
2022/05/25 13:05:53;;;;;;;1.75;0.40;;;24.40;1.60;;;;;;5009741;28;34147;-78
2022/05/25 13:08:49;;;;;;;1.65;0.50;;;24.30;1.00;;;;;;5009722;28;36405;-76
2022/05/25 13:11:36;;;;;;;1.95;0.50;;;24.10;1.00;;;;;;5008813;28;34472;-79
2022/05/25 13:14:25;;;;;;;0.52;0.25;;;24.00;1.00;;;;;;4994131;28;34031;-73
2022/05/25 13:16:58;;;;;;;0.88;0.40;;;23.90;1.00;;;;;;4994171;28;34175;-76
2022/05/25 13:19:43;;;;;;;0.40;0.40;;;23.80;1.00;;;;;;5012243;28;36481;-76
2022/05/25 13:22:22;;;;;;;6.72;0.65;;;23.60;1.00;;;;;;5012752;28;34066;-80
2022/05/25 13:25:11;;;;;;;3.85;0.52;;;23.80;1.00;;;;;;5012141;28;34305;-78
2022/05/25 13:28:13;;;;;;;0.22;0.22;;;23.70;1.00;;;;;;5013534;28;34323;-79
2022/05/25 13:30:53;;;;;;;0.40;0.40;;;23.90;1.00;;;;;;5001251;28;36694;-77
2022/05/25 13:33:27;;;;;;;0.45;0.40;;;23.70;1.00;;;;;;5012237;28;34041;-80
2022/05/25 13:36:07;;;;;;;3.25;0.50;;;23.50;1.00;;;;;;4994622;28;34004;-78
2022/05/25 13:38:39;;;;;;;2.17;0.52;;;23.50;1.00;;;;;;4980807;28;34871;-77
2022/05/25 13:41:22;;;;;;;2.53;0.40;;;23.60;1.00;;;;;;5011246;28;35631;-78
2022/05/25 13:44:07;;;;;;;1.05;0.45;;;23.80;1.00;;;;;;5011490;28;34031;-77
2022/05/25 13:46:39;;;;;;;0.57;0.32;;;24.00;1.00;;;;;;4971926;28;34516;-76
2022/05/25 13:49:08;;;;;;;1.25;0.40;;;24.00;1.00;;;;;;4998722;28;34204;-76
2022/05/25 13:51:34;;;;;;;0.30;0.30;;;23.80;1.00;;;;;;4982003;28;36345;-80
2022/05/25 13:54:00;;;;;;;1.55;0.40;;;23.70;1.00;;;;;;4983760;28;34227;-81
2022/05/25 13:56:31;;;;;;;2.30;0.47;;;23.60;1.20;;;;;;5003173;28;34190;-76